sensor_id;sensor_type;location;lat;lon;timestamp;pressure;altitude;pressure_sealevel;temperature;humidity
22104;BME280;11218;48.886;9.426;2023-03-13T00:02:01;97560.59;;;8.68;77.99
22104;BME280;11218;48.886;9.426;2023-03-13T00:04:32;97565.41;;;8.66;77.26
22104;BME280;11218;48.886;9.426;2023-03-13T00:07:00;97567.28;;;8.66;78.12
22104;BME280;11218;48.886;9.426;2023-03-13T00:09:28;97564.03;;;8.64;78.18
22104;BME280;11218;48.886;9.426;2023-03-13T00:11:57;97570.72;;;8.61;78.29
22104;BME280;11218;48.886;9.426;2023-03-13T00:14:25;97566.41;;;8.60;78.09
22104;BME280;11218;48.886;9.426;2023-03-13T00:16:53;97559.97;;;8.61;77.91
22104;BME280;11218;48.886;9.426;2023-03-13T00:19:22;97560.28;;;8.65;77.81
22104;BME280;11218;48.886;9.426;2023-03-13T00:21:50;97555.16;;;8.63;78.34
22104;BME280;11218;48.886;9.426;2023-03-13T00:24:18;97562.97;;;8.65;78.03
22104;BME280;11218;48.886;9.426;2023-03-13T00:26:47;97552.50;;;8.63;78.34
22104;BME280;11218;48.886;9.426;2023-03-13T00:29:15;97555.50;;;8.67;77.90
22104;BME280;11218;48.886;9.426;2023-03-13T00:31:43;97552.25;;;8.65;78.09
22104;BME280;11218;48.886;9.426;2023-03-13T00:34:12;97542.06;;;8.67;78.11
22104;BME280;11218;48.886;9.426;2023-03-13T00:36:41;97542.31;;;8.65;78.11
22104;BME280;11218;48.886;9.426;2023-03-13T00:39:09;97539.63;;;8.65;77.99
22104;BME280;11218;48.886;9.426;2023-03-13T00:41:37;97533.72;;;8.63;78.39
22104;BME280;11218;48.886;9.426;2023-03-13T00:44:05;97532.91;;;8.63;78.06
22104;BME280;11218;48.886;9.426;2023-03-13T00:46:34;97538.56;;;8.66;78.26
22104;BME280;11218;48.886;9.426;2023-03-13T00:49:03;97527.84;;;8.66;78.02
22104;BME280;11218;48.886;9.426;2023-03-13T00:51:31;97531.84;;;8.64;78.58
22104;BME280;11218;48.886;9.426;2023-03-13T00:54:01;97533.78;;;8.68;77.85
22104;BME280;11218;48.886;9.426;2023-03-13T00:56:30;97531.66;;;8.70;78.44
22104;BME280;11218;48.886;9.426;2023-03-13T00:58:58;97523.97;;;8.79;77.94
22104;BME280;11218;48.886;9.426;2023-03-13T01:01:29;97518.84;;;8.77;78.11
22104;BME280;11218;48.886;9.426;2023-03-13T01:03:59;97513.00;;;8.80;77.58
22104;BME280;11218;48.886;9.426;2023-03-13T01:06:29;97511.22;;;8.91;77.39
22104;BME280;11218;48.886;9.426;2023-03-13T01:08:58;97508.81;;;8.89;76.89
22104;BME280;11218;48.886;9.426;2023-03-13T01:11:29;97496.47;;;8.94;77.25
22104;BME280;11218;48.886;9.426;2023-03-13T01:13:59;97493.28;;;8.97;76.72
22104;BME280;11218;48.886;9.426;2023-03-13T01:16:30;97490.59;;;8.97;76.74
22104;BME280;11218;48.886;9.426;2023-03-13T01:19:00;97483.34;;;8.97;76.60
22104;BME280;11218;48.886;9.426;2023-03-13T01:21:28;97481.22;;;8.99;76.78
22104;BME280;11218;48.886;9.426;2023-03-13T01:23:57;97478.53;;;8.99;76.75
22104;BME280;11218;48.886;9.426;2023-03-13T01:26:26;97477.78;;;9.04;76.84
22104;BME280;11218;48.886;9.426;2023-03-13T01:28:56;97469.72;;;9.04;76.23
22104;BME280;11218;48.886;9.426;2023-03-13T01:31:26;97458.75;;;9.05;76.30
22104;BME280;11218;48.886;9.426;2023-03-13T01:33:56;97456.06;;;9.05;76.16
22104;BME280;11218;48.886;9.426;2023-03-13T01:36:25;97457.41;;;9.08;75.55
22104;BME280;11218;48.886;9.426;2023-03-13T01:38:55;97447.50;;;9.08;75.84
22104;BME280;11218;48.886;9.426;2023-03-13T01:41:24;97445.06;;;9.07;75.82
22104;BME280;11218;48.886;9.426;2023-03-13T01:43:53;97440.81;;;9.11;75.64
22104;BME280;11218;48.886;9.426;2023-03-13T01:46:24;97433.88;;;9.15;75.33
22104;BME280;11218;48.886;9.426;2023-03-13T01:48:57;97429.81;;;9.12;75.00
22104;BME280;11218;48.886;9.426;2023-03-13T01:51:28;97434.41;;;9.17;75.04
22104;BME280;11218;48.886;9.426;2023-03-13T01:54:02;97432.53;;;9.17;74.82
22104;BME280;11218;48.886;9.426;2023-03-13T01:56:37;97423.16;;;9.20;75.05
22104;BME280;11218;48.886;9.426;2023-03-13T01:59:08;97424.00;;;9.26;75.42
22104;BME280;11218;48.886;9.426;2023-03-13T02:01:40;97410.84;;;9.24;75.08
22104;BME280;11218;48.886;9.426;2023-03-13T02:04:09;97418.09;;;9.23;74.61
22104;BME280;11218;48.886;9.426;2023-03-13T02:06:40;97413.56;;;9.29;74.49
22104;BME280;11218;48.886;9.426;2023-03-13T02:09:13;97412.47;;;9.25;74.59
22104;BME280;11218;48.886;9.426;2023-03-13T02:11:47;97404.41;;;9.25;74.29
22104;BME280;11218;48.886;9.426;2023-03-13T02:14:18;97397.16;;;9.26;74.54
22104;BME280;11218;48.886;9.426;2023-03-13T02:16:49;97398.22;;;9.25;74.91
22104;BME280;11218;48.886;9.426;2023-03-13T02:19:22;97392.63;;;9.31;74.18
22104;BME280;11218;48.886;9.426;2023-03-13T02:21:54;97386.72;;;9.29;74.45
22104;BME280;11218;48.886;9.426;2023-03-13T02:24:31;97386.16;;;9.27;74.91
22104;BME280;11218;48.886;9.426;2023-03-13T02:27:02;97384.28;;;9.28;74.96
22104;BME280;11218;48.886;9.426;2023-03-13T02:29:30;97375.44;;;9.27;74.76
22104;BME280;11218;48.886;9.426;2023-03-13T02:31:59;97384.84;;;9.30;74.72
22104;BME280;11218;48.886;9.426;2023-03-13T02:34:30;97384.88;;;9.35;74.24
22104;BME280;11218;48.886;9.426;2023-03-13T02:36:59;97378.97;;;9.33;74.32
22104;BME280;11218;48.886;9.426;2023-03-13T02:39:29;97384.97;;;9.50;73.55
22104;BME280;11218;48.886;9.426;2023-03-13T02:42:00;97382.25;;;9.45;73.91
22104;BME280;11218;48.886;9.426;2023-03-13T02:44:30;97371.25;;;9.46;74.02
22104;BME280;11218;48.886;9.426;2023-03-13T02:46:58;97366.19;;;9.50;74.11
22104;BME280;11218;48.886;9.426;2023-03-13T02:49:28;97357.88;;;9.51;74.45
22104;BME280;11218;48.886;9.426;2023-03-13T02:51:58;97350.31;;;9.48;74.27
22104;BME280;11218;48.886;9.426;2023-03-13T02:54:29;97342.25;;;9.48;74.69
22104;BME280;11218;48.886;9.426;2023-03-13T02:57:02;97325.88;;;9.50;74.52
22104;BME280;11218;48.886;9.426;2023-03-13T02:59:33;97330.44;;;9.49;74.86
22104;BME280;11218;48.886;9.426;2023-03-13T03:02:02;97324.28;;;9.49;74.81
22104;BME280;11218;48.886;9.426;2023-03-13T03:04:30;97318.63;;;9.50;74.94
22104;BME280;11218;48.886;9.426;2023-03-13T03:06:59;97317.63;;;9.62;74.63
22104;BME280;11218;48.886;9.426;2023-03-13T03:09:26;97298.81;;;9.62;74.77
22104;BME280;11218;48.886;9.426;2023-03-13T03:11:55;97299.91;;;9.71;74.49
22104;BME280;11218;48.886;9.426;2023-03-13T03:14:23;97300.44;;;9.73;75.01
22104;BME280;11218;48.886;9.426;2023-03-13T03:16:53;97294.53;;;9.71;75.66
22104;BME280;11218;48.886;9.426;2023-03-13T03:19:21;97280.28;;;9.70;76.09
22104;BME280;11218;48.886;9.426;2023-03-13T03:21:49;97282.44;;;9.73;76.53
22104;BME280;11218;48.886;9.426;2023-03-13T03:24:17;97278.41;;;9.76;76.46
22104;BME280;11218;48.886;9.426;2023-03-13T03:26:45;97290.78;;;9.77;76.84
22104;BME280;11218;48.886;9.426;2023-03-13T03:29:13;97293.50;;;9.82;77.12
22104;BME280;11218;48.886;9.426;2023-03-13T03:31:41;97291.34;;;9.79;77.91
22104;BME280;11218;48.886;9.426;2023-03-13T03:34:10;97282.47;;;9.83;77.82
22104;BME280;11218;48.886;9.426;2023-03-13T03:36:38;97285.72;;;9.85;78.20
22104;BME280;11218;48.886;9.426;2023-03-13T03:39:08;97273.91;;;9.86;78.73
22104;BME280;11218;48.886;9.426;2023-03-13T03:41:36;97275.25;;;9.89;79.11
22104;BME280;11218;48.886;9.426;2023-03-13T03:44:04;97277.66;;;9.91;79.77
22104;BME280;11218;48.886;9.426;2023-03-13T03:46:32;97270.69;;;9.89;80.35
22104;BME280;11218;48.886;9.426;2023-03-13T03:49:00;97273.63;;;9.83;81.20
22104;BME280;11218;48.886;9.426;2023-03-13T03:51:30;97271.72;;;9.83;81.78
22104;BME280;11218;48.886;9.426;2023-03-13T03:53:58;97274.94;;;9.80;81.61
22104;BME280;11218;48.886;9.426;2023-03-13T03:56:26;97270.63;;;9.74;82.10
22104;BME280;11218;48.886;9.426;2023-03-13T03:58:54;97277.63;;;9.80;81.91
22104;BME280;11218;48.886;9.426;2023-03-13T04:01:22;97269.03;;;9.83;82.08
22104;BME280;11218;48.886;9.426;2023-03-13T04:03:50;97264.75;;;9.87;82.38
22104;BME280;11218;48.886;9.426;2023-03-13T04:06:18;97259.09;;;9.79;82.33
22104;BME280;11218;48.886;9.426;2023-03-13T04:08:47;97273.06;;;9.81;82.46
22104;BME280;11218;48.886;9.426;2023-03-13T04:11:15;97268.22;;;9.78;82.58
22104;BME280;11218;48.886;9.426;2023-03-13T04:13:43;97258.53;;;9.77;83.13
22104;BME280;11218;48.886;9.426;2023-03-13T04:16:11;97263.13;;;9.81;82.64
22104;BME280;11218;48.886;9.426;2023-03-13T04:18:40;97264.75;;;9.82;82.40
22104;BME280;11218;48.886;9.426;2023-03-13T04:21:08;97252.41;;;9.97;82.12
22104;BME280;11218;48.886;9.426;2023-03-13T04:23:36;97241.41;;;9.98;81.98
22104;BME280;11218;48.886;9.426;2023-03-13T04:26:05;97250.56;;;10.07;81.78
22104;BME280;11218;48.886;9.426;2023-03-13T04:28:33;97239.56;;;10.19;81.65
22104;BME280;11218;48.886;9.426;2023-03-13T04:31:04;97231.53;;;10.29;81.42
22104;BME280;11218;48.886;9.426;2023-03-13T04:33:32;97223.19;;;10.31;81.53
22104;BME280;11218;48.886;9.426;2023-03-13T04:36:03;97228.03;;;10.34;81.44
22104;BME280;11218;48.886;9.426;2023-03-13T04:38:31;97231.81;;;10.38;81.43
22104;BME280;11218;48.886;9.426;2023-03-13T04:40:59;97221.28;;;10.46;80.88
22104;BME280;11218;48.886;9.426;2023-03-13T04:43:28;97231.78;;;10.48;80.85
22104;BME280;11218;48.886;9.426;2023-03-13T04:45:57;97225.59;;;10.47;81.42
22104;BME280;11218;48.886;9.426;2023-03-13T04:48:25;97224.53;;;10.64;81.44
22104;BME280;11218;48.886;9.426;2023-03-13T04:50:53;97233.94;;;10.76;81.67
22104;BME280;11218;48.886;9.426;2023-03-13T04:53:21;97227.19;;;10.89;81.16
22104;BME280;11218;48.886;9.426;2023-03-13T04:55:49;97233.38;;;10.95;81.06
22104;BME280;11218;48.886;9.426;2023-03-13T04:58:17;97226.09;;;11.00;81.19
22104;BME280;11218;48.886;9.426;2023-03-13T05:00:47;97218.56;;;10.97;81.47
22104;BME280;11218;48.886;9.426;2023-03-13T05:03:15;97223.66;;;11.09;81.39
22104;BME280;11218;48.886;9.426;2023-03-13T05:05:43;97227.97;;;11.05;81.68
22104;BME280;11218;48.886;9.426;2023-03-13T05:08:11;97226.34;;;11.09;81.82
22104;BME280;11218;48.886;9.426;2023-03-13T05:10:40;97226.09;;;11.05;82.53
22104;BME280;11218;48.886;9.426;2023-03-13T05:13:09;97216.88;;;11.16;82.13
22104;BME280;11218;48.886;9.426;2023-03-13T05:15:37;97223.59;;;11.19;82.51
22104;BME280;11218;48.886;9.426;2023-03-13T05:18:06;97226.28;;;11.19;82.31
22104;BME280;11218;48.886;9.426;2023-03-13T05:20:35;97218.75;;;11.21;82.58
22104;BME280;11218;48.886;9.426;2023-03-13T05:23:03;97223.84;;;11.28;82.25
22104;BME280;11218;48.886;9.426;2023-03-13T05:25:32;97222.78;;;11.29;82.86
22104;BME280;11218;48.886;9.426;2023-03-13T05:28:00;97221.16;;;11.23;83.30
22104;BME280;11218;48.886;9.426;2023-03-13T05:30:28;97216.84;;;11.32;82.54
22104;BME280;11218;48.886;9.426;2023-03-13T05:32:56;97207.41;;;11.29;82.12
22104;BME280;11218;48.886;9.426;2023-03-13T05:35:25;97214.94;;;11.37;81.96
22104;BME280;11218;48.886;9.426;2023-03-13T05:37:53;97217.63;;;11.37;81.93
22104;BME280;11218;48.886;9.426;2023-03-13T05:40:21;97216.25;;;11.40;82.20
22104;BME280;11218;48.886;9.426;2023-03-13T05:42:49;97216.56;;;11.33;82.26
22104;BME280;11218;48.886;9.426;2023-03-13T05:45:17;97206.03;;;11.37;81.83
22104;BME280;11218;48.886;9.426;2023-03-13T05:47:45;97210.09;;;11.34;82.16
22104;BME280;11218;48.886;9.426;2023-03-13T05:50:13;97207.38;;;11.39;81.62
22104;BME280;11218;48.886;9.426;2023-03-13T05:52:43;97210.09;;;11.34;81.65
22104;BME280;11218;48.886;9.426;2023-03-13T05:55:11;97216.84;;;11.32;81.82
22104;BME280;11218;48.886;9.426;2023-03-13T05:57:43;97204.94;;;11.43;82.70
22104;BME280;11218;48.886;9.426;2023-03-13T06:00:12;97210.31;;;11.48;83.30
22104;BME280;11218;48.886;9.426;2023-03-13T06:02:41;97196.31;;;11.41;83.88
22104;BME280;11218;48.886;9.426;2023-03-13T06:05:09;97204.13;;;11.42;83.89
22104;BME280;11218;48.886;9.426;2023-03-13T06:07:38;97206.31;;;11.35;83.88
22104;BME280;11218;48.886;9.426;2023-03-13T06:10:08;97199.88;;;11.31;84.59
22104;BME280;11218;48.886;9.426;2023-03-13T06:12:37;97195.03;;;11.23;84.95
22104;BME280;11218;48.886;9.426;2023-03-13T06:15:06;97208.75;;;11.32;83.98
22104;BME280;11218;48.886;9.426;2023-03-13T06:17:37;97199.31;;;11.34;83.68
22104;BME280;11218;48.886;9.426;2023-03-13T06:20:06;97211.44;;;11.37;83.83
22104;BME280;11218;48.886;9.426;2023-03-13T06:22:35;97213.81;;;11.43;83.57
22104;BME280;11218;48.886;9.426;2023-03-13T06:25:04;97209.00;;;11.40;83.64
22104;BME280;11218;48.886;9.426;2023-03-13T06:27:33;97213.84;;;11.38;83.56
22104;BME280;11218;48.886;9.426;2023-03-13T06:30:02;97217.59;;;11.42;83.60
22104;BME280;11218;48.886;9.426;2023-03-13T06:32:31;97219.19;;;11.53;82.72
22104;BME280;11218;48.886;9.426;2023-03-13T06:34:59;97205.44;;;11.50;82.81
22104;BME280;11218;48.886;9.426;2023-03-13T06:37:27;97201.94;;;11.55;82.89
22104;BME280;11218;48.886;9.426;2023-03-13T06:39:55;97200.00;;;11.65;82.87
22104;BME280;11218;48.886;9.426;2023-03-13T06:42:23;97203.50;;;11.66;81.96
22104;BME280;11218;48.886;9.426;2023-03-13T06:44:53;97198.66;;;11.63;82.58
22104;BME280;11218;48.886;9.426;2023-03-13T06:47:21;97205.66;;;11.64;82.75
22104;BME280;11218;48.886;9.426;2023-03-13T06:49:49;97208.34;;;11.64;82.68
22104;BME280;11218;48.886;9.426;2023-03-13T06:52:17;97214.78;;;11.73;81.94
22104;BME280;11218;48.886;9.426;2023-03-13T06:54:46;97206.97;;;11.71;82.49
22104;BME280;11218;48.886;9.426;2023-03-13T06:57:14;97214.22;;;11.81;82.24
22104;BME280;11218;48.886;9.426;2023-03-13T06:59:42;97207.78;;;11.72;81.75
22104;BME280;11218;48.886;9.426;2023-03-13T07:02:12;97213.69;;;11.79;82.02
22104;BME280;11218;48.886;9.426;2023-03-13T07:04:40;97219.38;;;11.72;82.23
22104;BME280;11218;48.886;9.426;2023-03-13T07:07:10;97217.22;;;11.79;82.29
22104;BME280;11218;48.886;9.426;2023-03-13T07:09:56;97218.56;;;11.72;82.52
22104;BME280;11218;48.886;9.426;2023-03-13T07:12:24;97220.16;;;11.73;82.33
22104;BME280;11218;48.886;9.426;2023-03-13T07:14:52;97221.53;;;11.70;82.74
22104;BME280;11218;48.886;9.426;2023-03-13T07:17:23;97232.31;;;11.70;82.73
22104;BME280;11218;48.886;9.426;2023-03-13T07:19:51;97236.91;;;11.70;82.92
22104;BME280;11218;48.886;9.426;2023-03-13T07:22:20;97240.41;;;11.70;83.48
22104;BME280;11218;48.886;9.426;2023-03-13T07:24:48;97241.47;;;11.79;83.47
22104;BME280;11218;48.886;9.426;2023-03-13T07:27:16;97243.06;;;11.75;83.21
22104;BME280;11218;48.886;9.426;2023-03-13T07:29:46;97243.38;;;11.79;82.87
22104;BME280;11218;48.886;9.426;2023-03-13T07:32:15;97229.88;;;11.74;83.78
22104;BME280;11218;48.886;9.426;2023-03-13T07:34:47;97232.81;;;11.82;82.76
22104;BME280;11218;48.886;9.426;2023-03-13T07:37:16;97233.09;;;11.86;82.95
22104;BME280;11218;48.886;9.426;2023-03-13T07:39:44;97226.53;;;11.97;82.50
22104;BME280;11218;48.886;9.426;2023-03-13T07:42:12;97228.41;;;11.97;82.79
22104;BME280;11218;48.886;9.426;2023-03-13T07:44:40;97212.78;;;11.94;82.93
22104;BME280;11218;48.886;9.426;2023-03-13T07:47:08;97217.09;;;11.95;83.15
22104;BME280;11218;48.886;9.426;2023-03-13T07:49:37;97214.66;;;11.98;82.76
22104;BME280;11218;48.886;9.426;2023-03-13T07:52:09;97206.22;;;12.10;83.03
22104;BME280;11218;48.886;9.426;2023-03-13T07:54:38;97207.31;;;12.09;82.97
22104;BME280;11218;48.886;9.426;2023-03-13T07:57:06;97202.72;;;12.09;82.95
22104;BME280;11218;48.886;9.426;2023-03-13T07:59:34;97199.69;;;12.16;83.10
22104;BME280;11218;48.886;9.426;2023-03-13T08:02:03;97201.06;;;12.13;82.70
22104;BME280;11218;48.886;9.426;2023-03-13T08:04:31;97187.00;;;12.16;82.91
22104;BME280;11218;48.886;9.426;2023-03-13T08:06:59;97178.41;;;12.14;83.23
22104;BME280;11218;48.886;9.426;2023-03-13T08:09:32;97177.00;;;12.22;83.07
22104;BME280;11218;48.886;9.426;2023-03-13T08:12:00;97184.84;;;12.18;83.29
22104;BME280;11218;48.886;9.426;2023-03-13T08:14:28;97175.09;;;12.23;82.37
22104;BME280;11218;48.886;9.426;2023-03-13T08:16:57;97172.13;;;12.24;83.22
22104;BME280;11218;48.886;9.426;2023-03-13T08:19:25;97179.09;;;12.30;83.16
22104;BME280;11218;48.886;9.426;2023-03-13T08:21:54;97165.50;;;12.40;82.44
22104;BME280;11218;48.886;9.426;2023-03-13T08:24:22;97151.41;;;12.48;81.99
22104;BME280;11218;48.886;9.426;2023-03-13T08:26:52;97145.13;;;12.58;82.21
22104;BME280;11218;48.886;9.426;2023-03-13T08:29:20;97139.53;;;12.73;81.59
22104;BME280;11218;48.886;9.426;2023-03-13T08:31:49;97146.78;;;12.78;81.46
22104;BME280;11218;48.886;9.426;2023-03-13T08:34:18;97149.31;;;12.93;80.61
22104;BME280;11218;48.886;9.426;2023-03-13T08:36:48;97142.94;;;13.08;79.69
22104;BME280;11218;48.886;9.426;2023-03-13T08:39:19;97143.69;;;13.13;79.55
22104;BME280;11218;48.886;9.426;2023-03-13T08:41:47;97150.16;;;13.18;79.42
22104;BME280;11218;48.886;9.426;2023-03-13T08:44:18;97156.19;;;13.33;79.89
22104;BME280;11218;48.886;9.426;2023-03-13T08:46:49;97150.56;;;13.48;79.55
22104;BME280;11218;48.886;9.426;2023-03-13T08:49:17;97149.06;;;13.61;79.13
22104;BME280;11218;48.886;9.426;2023-03-13T08:51:45;97148.31;;;13.74;78.08
22104;BME280;11218;48.886;9.426;2023-03-13T08:54:13;97156.53;;;13.88;77.89
22104;BME280;11218;48.886;9.426;2023-03-13T08:56:44;97153.22;;;13.91;77.57
22104;BME280;11218;48.886;9.426;2023-03-13T08:59:13;97152.66;;;13.94;77.08
22104;BME280;11218;48.886;9.426;2023-03-13T09:01:43;97155.78;;;14.01;77.04
22104;BME280;11218;48.886;9.426;2023-03-13T09:04:17;97149.06;;;13.99;76.83
22104;BME280;11218;48.886;9.426;2023-03-13T09:06:52;97149.28;;;14.02;76.13
22104;BME280;11218;48.886;9.426;2023-03-13T09:09:31;97146.66;;;13.97;76.39
22104;BME280;11218;48.886;9.426;2023-03-13T09:12:00;97147.97;;;14.00;75.91
22104;BME280;11218;48.886;9.426;2023-03-13T09:14:36;97138.09;;;13.90;76.78
22104;BME280;11218;48.886;9.426;2023-03-13T09:17:21;97130.13;;;13.99;76.08
22104;BME280;11218;48.886;9.426;2023-03-13T09:19:49;97149.78;;;14.04;75.46
22104;BME280;11218;48.886;9.426;2023-03-13T09:22:26;97144.53;;;13.94;76.04
22104;BME280;11218;48.886;9.426;2023-03-13T09:24:54;97139.91;;;13.95;75.46
22104;BME280;11218;48.886;9.426;2023-03-13T09:27:22;97145.56;;;13.98;75.40
22104;BME280;11218;48.886;9.426;2023-03-13T09:29:50;97142.56;;;14.00;75.16
22104;BME280;11218;48.886;9.426;2023-03-13T09:32:18;97142.03;;;13.98;75.38
22104;BME280;11218;48.886;9.426;2023-03-13T09:34:48;97131.25;;;14.11;74.54
22104;BME280;11218;48.886;9.426;2023-03-13T09:37:16;97120.41;;;14.11;74.56
22104;BME280;11218;48.886;9.426;2023-03-13T09:39:44;97123.97;;;14.26;73.27
22104;BME280;11218;48.886;9.426;2023-03-13T09:42:15;97140.16;;;14.31;73.57
22104;BME280;11218;48.886;9.426;2023-03-13T09:44:45;97130.94;;;14.32;73.49
22104;BME280;11218;48.886;9.426;2023-03-13T09:47:20;97147.47;;;14.30;73.39
22104;BME280;11218;48.886;9.426;2023-03-13T09:49:55;97136.94;;;14.29;73.42
22104;BME280;11218;48.886;9.426;2023-03-13T09:52:26;97147.25;;;14.27;73.66
22104;BME280;11218;48.886;9.426;2023-03-13T09:54:59;97143.38;;;14.33;72.41
22104;BME280;11218;48.886;9.426;2023-03-13T09:57:33;97150.38;;;14.34;72.82
22104;BME280;11218;48.886;9.426;2023-03-13T10:00:06;97138.66;;;14.38;73.12
22104;BME280;11218;48.886;9.426;2023-03-13T10:02:43;97140.94;;;14.50;72.87
22104;BME280;11218;48.886;9.426;2023-03-13T10:05:16;97124.13;;;14.67;72.28
22104;BME280;11218;48.886;9.426;2023-03-13T10:07:47;97127.34;;;14.96;70.92
22104;BME280;11218;48.886;9.426;2023-03-13T10:10:36;97122.84;;;15.19;70.24
22104;BME280;11218;48.886;9.426;2023-03-13T10:13:14;97121.41;;;15.35;69.85
22104;BME280;11218;48.886;9.426;2023-03-13T10:15:45;97096.50;;;15.47;68.52
22104;BME280;11218;48.886;9.426;2023-03-13T10:18:18;97103.81;;;15.60;68.22
22104;BME280;11218;48.886;9.426;2023-03-13T10:20:50;97100.78;;;15.62;67.55
22104;BME280;11218;48.886;9.426;2023-03-13T10:23:21;97099.38;;;15.64;67.43
22104;BME280;11218;48.886;9.426;2023-03-13T10:25:53;97105.09;;;15.63;67.82
22104;BME280;11218;48.886;9.426;2023-03-13T10:28:21;97103.25;;;15.72;67.26
22104;BME280;11218;48.886;9.426;2023-03-13T10:30:52;97088.31;;;15.97;66.39
22104;BME280;11218;48.886;9.426;2023-03-13T10:33:23;97084.78;;;16.19;64.98
22104;BME280;11218;48.886;9.426;2023-03-13T10:36:02;97071.00;;;16.37;64.85
22104;BME280;11218;48.886;9.426;2023-03-13T10:38:33;97073.25;;;16.66;64.58
22104;BME280;11218;48.886;9.426;2023-03-13T10:41:07;97069.22;;;16.95;63.41
22104;BME280;11218;48.886;9.426;2023-03-13T10:43:49;97064.44;;;17.09;62.57
22104;BME280;11218;48.886;9.426;2023-03-13T10:46:24;97068.63;;;17.06;60.93
22104;BME280;11218;48.886;9.426;2023-03-13T10:48:53;97060.28;;;17.03;61.31
22104;BME280;11218;48.886;9.426;2023-03-13T10:51:31;97059.50;;;17.20;61.10
22104;BME280;11218;48.886;9.426;2023-03-13T10:54:13;97058.72;;;17.28;60.63
22104;BME280;11218;48.886;9.426;2023-03-13T10:56:42;97042.88;;;17.21;61.14
22104;BME280;11218;48.886;9.426;2023-03-13T10:59:22;97043.97;;;17.20;60.89
22104;BME280;11218;48.886;9.426;2023-03-13T11:01:51;97045.25;;;17.14;61.14
22104;BME280;11218;48.886;9.426;2023-03-13T11:04:29;97050.22;;;17.21;60.43
22104;BME280;11218;48.886;9.426;2023-03-13T11:07:03;97045.75;;;17.25;60.40
22104;BME280;11218;48.886;9.426;2023-03-13T11:09:32;97029.75;;;17.23;60.74
22104;BME280;11218;48.886;9.426;2023-03-13T11:12:03;97034.88;;;17.33;61.09
22104;BME280;11218;48.886;9.426;2023-03-13T11:14:31;97025.94;;;17.33;59.99
22104;BME280;11218;48.886;9.426;2023-03-13T11:17:04;97035.53;;;17.30;59.86
22104;BME280;11218;48.886;9.426;2023-03-13T11:19:46;97032.66;;;17.35;60.30
22104;BME280;11218;48.886;9.426;2023-03-13T11:22:29;97027.03;;;17.23;60.33
22104;BME280;11218;48.886;9.426;2023-03-13T11:25:12;97018.06;;;17.23;60.77
22104;BME280;11218;48.886;9.426;2023-03-13T11:27:47;97028.13;;;17.14;60.68
22104;BME280;11218;48.886;9.426;2023-03-13T11:30:26;97018.38;;;17.13;60.77
22104;BME280;11218;48.886;9.426;2023-03-13T11:33:00;97019.00;;;17.09;60.14
22104;BME280;11218;48.886;9.426;2023-03-13T11:35:36;97007.19;;;17.05;60.59
22104;BME280;11218;48.886;9.426;2023-03-13T11:38:14;97005.41;;;17.01;61.01
22104;BME280;11218;48.886;9.426;2023-03-13T11:40:52;96994.22;;;17.11;59.95
22104;BME280;11218;48.886;9.426;2023-03-13T11:43:31;96988.31;;;17.18;60.55
22104;BME280;11218;48.886;9.426;2023-03-13T11:46:27;96963.69;;;17.57;59.62
22104;BME280;11218;48.886;9.426;2023-03-13T11:49:20;96971.00;;;17.83;58.95
22104;BME280;11218;48.886;9.426;2023-03-13T11:51:59;96962.34;;;17.89;58.15
22104;BME280;11218;48.886;9.426;2023-03-13T11:54:52;96949.84;;;17.97;58.02
22104;BME280;11218;48.886;9.426;2023-03-13T11:57:26;96950.00;;;17.92;57.74
22104;BME280;11218;48.886;9.426;2023-03-13T12:00:15;96950.00;;;17.92;58.29
22104;BME280;11218;48.886;9.426;2023-03-13T12:02:48;96951.47;;;17.89;58.44
22104;BME280;11218;48.886;9.426;2023-03-13T12:05:22;96923.91;;;17.91;58.41
22104;BME280;11218;48.886;9.426;2023-03-13T12:07:54;96920.69;;;17.97;58.56
22104;BME280;11218;48.886;9.426;2023-03-13T12:10:28;96902.03;;;18.17;57.39
22104;BME280;11218;48.886;9.426;2023-03-13T12:13:02;96895.66;;;18.13;57.32
22104;BME280;11218;48.886;9.426;2023-03-13T12:15:36;96905.41;;;18.14;57.67
22104;BME280;11218;48.886;9.426;2023-03-13T12:18:11;96891.94;;;18.17;57.07
22104;BME280;11218;48.886;9.426;2023-03-13T12:20:50;96895.09;;;18.28;56.96
22104;BME280;11218;48.886;9.426;2023-03-13T12:23:28;96890.16;;;18.21;56.46
22104;BME280;11218;48.886;9.426;2023-03-13T12:26:05;96883.13;;;18.20;57.04
22104;BME280;11218;48.886;9.426;2023-03-13T12:28:40;96865.97;;;18.20;57.04
22104;BME280;11218;48.886;9.426;2023-03-13T12:31:20;96850.28;;;18.17;56.78
22104;BME280;11218;48.886;9.426;2023-03-13T12:33:53;96861.66;;;18.19;56.84
22104;BME280;11218;48.886;9.426;2023-03-13T12:36:28;96836.47;;;18.22;56.11
22104;BME280;11218;48.886;9.426;2023-03-13T12:39:09;96826.56;;;18.47;55.74
22104;BME280;11218;48.886;9.426;2023-03-13T12:41:42;96821.91;;;18.68;55.96
22104;BME280;11218;48.886;9.426;2023-03-13T12:44:14;96817.13;;;18.86;55.59
22104;BME280;11218;48.886;9.426;2023-03-13T12:46:45;96811.00;;;18.89;55.66
22104;BME280;11218;48.886;9.426;2023-03-13T12:49:38;96796.97;;;18.99;54.35
22104;BME280;11218;48.886;9.426;2023-03-13T12:52:43;96788.66;;;19.28;53.94
22104;BME280;11218;48.886;9.426;2023-03-13T12:55:32;96785.25;;;19.44;53.00
22104;BME280;11218;48.886;9.426;2023-03-13T12:58:37;96776.56;;;19.62;52.15
22104;BME280;11218;48.886;9.426;2023-03-13T13:01:09;96755.19;;;19.77;51.45
22104;BME280;11218;48.886;9.426;2023-03-13T13:03:51;96741.78;;;19.96;51.74
22104;BME280;11218;48.886;9.426;2023-03-13T13:06:20;96740.25;;;20.11;51.28
22104;BME280;11218;48.886;9.426;2023-03-13T13:09:03;96742.63;;;20.12;50.78
22104;BME280;11218;48.886;9.426;2023-03-13T13:11:55;96721.81;;;20.08;50.32
22104;BME280;11218;48.886;9.426;2023-03-13T13:15:03;96713.88;;;20.02;50.78
22104;BME280;11218;48.886;9.426;2023-03-13T13:17:50;96715.22;;;20.09;50.29
22104;BME280;11218;48.886;9.426;2023-03-13T13:20:35;96703.34;;;20.17;50.45
22104;BME280;11218;48.886;9.426;2023-03-13T13:23:20;96692.88;;;20.19;50.10
22104;BME280;11218;48.886;9.426;2023-03-13T13:25:49;96686.38;;;20.23;50.61
22104;BME280;11218;48.886;9.426;2023-03-13T13:28:31;96676.78;;;20.29;50.20